sensor_id;sensor_type;location;lat;lon;timestamp;pressure;altitude;pressure_sealevel;temperature;humidity
21359;BME280;13506;50.852;20.632;2023-06-14T00:00:01;98219.47;;;11.26;100.00
21359;BME280;13506;50.852;20.632;2023-06-14T00:02:32;98210.56;;;11.18;100.00
21359;BME280;13506;50.852;20.632;2023-06-14T00:05:00;98216.00;;;11.14;100.00
21359;BME280;13506;50.852;20.632;2023-06-14T00:07:36;98216.97;;;11.25;100.00
21359;BME280;13506;50.852;20.632;2023-06-14T00:10:09;98220.44;;;11.36;100.00
21359;BME280;13506;50.852;20.632;2023-06-14T00:12:39;98216.03;;;11.37;100.00
21359;BME280;13506;50.852;20.632;2023-06-14T00:15:07;98214.84;;;11.30;100.00
21359;BME280;13506;50.852;20.632;2023-06-14T00:17:37;98207.94;;;11.06;100.00
21359;BME280;13506;50.852;20.632;2023-06-14T00:20:05;98209.84;;;11.15;100.00
21359;BME280;13506;50.852;20.632;2023-06-14T00:22:35;98210.44;;;11.19;100.00
21359;BME280;13506;50.852;20.632;2023-06-14T00:25:06;98209.84;;;11.27;100.00
21359;BME280;13506;50.852;20.632;2023-06-14T00:27:34;98206.16;;;11.18;100.00
21359;BME280;13506;50.852;20.632;2023-06-14T00:30:02;98198.41;;;11.39;100.00
21359;BME280;13506;50.852;20.632;2023-06-14T00:32:30;98205.78;;;11.45;100.00
21359;BME280;13506;50.852;20.632;2023-06-14T00:34:58;98199.34;;;11.49;100.00
21359;BME280;13506;50.852;20.632;2023-06-14T00:37:26;98200.41;;;11.58;100.00
21359;BME280;13506;50.852;20.632;2023-06-14T00:39:55;98197.06;;;11.67;100.00
21359;BME280;13506;50.852;20.632;2023-06-14T00:42:26;98191.69;;;11.69;100.00
21359;BME280;13506;50.852;20.632;2023-06-14T00:44:55;98190.50;;;11.73;100.00
21359;BME280;13506;50.852;20.632;2023-06-14T00:47:24;98196.34;;;11.76;100.00
21359;BME280;13506;50.852;20.632;2023-06-14T00:49:53;98202.28;;;11.67;100.00
21359;BME280;13506;50.852;20.632;2023-06-14T00:52:23;98193.00;;;11.63;100.00
21359;BME280;13506;50.852;20.632;2023-06-14T00:54:51;98201.25;;;11.70;100.00
21359;BME280;13506;50.852;20.632;2023-06-14T00:57:21;98187.28;;;11.69;100.00
21359;BME280;13506;50.852;20.632;2023-06-14T00:59:50;98194.59;;;11.66;100.00
21359;BME280;13506;50.852;20.632;2023-06-14T01:02:19;98197.19;;;11.66;100.00
21359;BME280;13506;50.852;20.632;2023-06-14T01:04:48;98194.84;;;11.40;100.00
21359;BME280;13506;50.852;20.632;2023-06-14T01:07:27;98190.78;;;11.47;100.00
21359;BME280;13506;50.852;20.632;2023-06-14T01:10:12;98186.75;;;11.32;100.00
21359;BME280;13506;50.852;20.632;2023-06-14T01:12:53;98182.22;;;11.34;100.00
21359;BME280;13506;50.852;20.632;2023-06-14T01:15:25;98185.06;;;11.31;100.00
21359;BME280;13506;50.852;20.632;2023-06-14T01:17:56;98181.03;;;11.38;100.00
21359;BME280;13506;50.852;20.632;2023-06-14T01:20:31;98177.44;;;11.39;100.00
21359;BME280;13506;50.852;20.632;2023-06-14T01:23:01;98175.06;;;11.25;100.00
21359;BME280;13506;50.852;20.632;2023-06-14T01:25:30;98174.25;;;11.24;100.00
21359;BME280;13506;50.852;20.632;2023-06-14T01:28:01;98163.97;;;10.99;100.00
21359;BME280;13506;50.852;20.632;2023-06-14T01:30:31;98171.16;;;11.08;100.00
21359;BME280;13506;50.852;20.632;2023-06-14T01:33:01;98170.44;;;11.06;100.00
21359;BME280;13506;50.852;20.632;2023-06-14T01:35:32;98172.22;;;11.16;100.00
21359;BME280;13506;50.852;20.632;2023-06-14T01:38:04;98170.44;;;11.17;100.00
21359;BME280;13506;50.852;20.632;2023-06-14T01:40:35;98166.88;;;11.18;100.00
21359;BME280;13506;50.852;20.632;2023-06-14T01:43:04;98173.91;;;11.18;100.00
21359;BME280;13506;50.852;20.632;2023-06-14T01:45:34;98164.97;;;11.20;100.00
21359;BME280;13506;50.852;20.632;2023-06-14T01:48:03;98172.22;;;11.16;100.00
21359;BME280;13506;50.852;20.632;2023-06-14T01:50:32;98172.00;;;11.20;100.00
21359;BME280;13506;50.852;20.632;2023-06-14T01:53:00;98169.38;;;11.08;100.00
21359;BME280;13506;50.852;20.632;2023-06-14T01:55:29;98162.09;;;11.12;100.00
21359;BME280;13506;50.852;20.632;2023-06-14T01:58:07;98165.69;;;11.22;100.00
21359;BME280;13506;50.852;20.632;2023-06-14T02:00:35;98172.72;;;11.22;100.00
21359;BME280;13506;50.852;20.632;2023-06-14T02:03:04;98172.72;;;11.22;100.00
21359;BME280;13506;50.852;20.632;2023-06-14T02:05:31;98167.72;;;11.30;100.00
21359;BME280;13506;50.852;20.632;2023-06-14T02:08:01;98164.94;;;11.31;100.00
21359;BME280;13506;50.852;20.632;2023-06-14T02:10:31;98171.50;;;11.37;100.00
21359;BME280;13506;50.852;20.632;2023-06-14T02:12:59;98179.97;;;11.18;100.00
21359;BME280;13506;50.852;20.632;2023-06-14T02:15:27;98173.53;;;11.11;100.00
21359;BME280;13506;50.852;20.632;2023-06-14T02:18:01;98179.97;;;11.18;100.00
21359;BME280;13506;50.852;20.632;2023-06-14T02:20:29;98183.53;;;11.17;100.00
21359;BME280;13506;50.852;20.632;2023-06-14T02:22:58;98178.41;;;11.04;100.00
21359;BME280;13506;50.852;20.632;2023-06-14T02:25:26;98182.34;;;11.10;100.00
21359;BME280;13506;50.852;20.632;2023-06-14T02:27:56;98175.75;;;10.82;100.00
21359;BME280;13506;50.852;20.632;2023-06-14T02:30:24;98174.50;;;11.21;100.00
21359;BME280;13506;50.852;20.632;2023-06-14T02:32:52;98174.59;;;11.31;100.00
21359;BME280;13506;50.852;20.632;2023-06-14T02:35:20;98175.31;;;11.33;100.00
21359;BME280;13506;50.852;20.632;2023-06-14T02:37:51;98171.75;;;11.34;100.00
21359;BME280;13506;50.852;20.632;2023-06-14T02:40:19;98183.53;;;11.40;100.00
21359;BME280;13506;50.852;20.632;2023-06-14T02:42:47;98181.75;;;11.29;100.00
21359;BME280;13506;50.852;20.632;2023-06-14T02:45:18;98171.28;;;11.40;100.00
21359;BME280;13506;50.852;20.632;2023-06-14T02:47:48;98167.66;;;11.52;100.00
21359;BME280;13506;50.852;20.632;2023-06-14T02:50:16;98170.78;;;11.57;100.00
21359;BME280;13506;50.852;20.632;2023-06-14T02:52:45;98179.09;;;11.63;100.00
21359;BME280;13506;50.852;20.632;2023-06-14T02:55:12;98180.88;;;11.62;100.00
21359;BME280;13506;50.852;20.632;2023-06-14T02:57:42;98178.00;;;11.65;100.00
21359;BME280;13506;50.852;20.632;2023-06-14T03:00:11;98178.22;;;11.73;100.00
21359;BME280;13506;50.852;20.632;2023-06-14T03:02:43;98174.41;;;11.77;100.00
21359;BME280;13506;50.852;20.632;2023-06-14T03:05:13;98176.53;;;11.84;100.00
21359;BME280;13506;50.852;20.632;2023-06-14T03:07:44;98168.56;;;11.85;100.00
21359;BME280;13506;50.852;20.632;2023-06-14T03:10:12;98176.66;;;11.93;100.00
21359;BME280;13506;50.852;20.632;2023-06-14T03:12:43;98186.28;;;11.93;100.00
21359;BME280;13506;50.852;20.632;2023-06-14T03:15:12;98182.22;;;12.00;100.00
21359;BME280;13506;50.852;20.632;2023-06-14T03:17:46;98180.41;;;12.01;100.00
21359;BME280;13506;50.852;20.632;2023-06-14T03:20:17;98184.34;;;11.95;100.00
21359;BME280;13506;50.852;20.632;2023-06-14T03:22:47;98180.41;;;12.01;100.00
21359;BME280;13506;50.852;20.632;2023-06-14T03:25:15;98185.56;;;12.02;100.00
21359;BME280;13506;50.852;20.632;2023-06-14T03:27:46;98181.47;;;12.09;100.00
21359;BME280;13506;50.852;20.632;2023-06-14T03:30:14;98181.06;;;12.14;100.00
21359;BME280;13506;50.852;20.632;2023-06-14T03:32:46;98178.81;;;12.21;100.00
21359;BME280;13506;50.852;20.632;2023-06-14T03:35:14;98174.50;;;12.20;100.00
21359;BME280;13506;50.852;20.632;2023-06-14T03:37:45;98173.06;;;12.27;100.00
21359;BME280;13506;50.852;20.632;2023-06-14T03:40:15;98175.34;;;12.31;100.00
21359;BME280;13506;50.852;20.632;2023-06-14T03:42:45;98170.91;;;12.32;100.00
21359;BME280;13506;50.852;20.632;2023-06-14T03:45:13;98171.75;;;12.32;100.00
21359;BME280;13506;50.852;20.632;2023-06-14T03:47:42;98175.06;;;12.34;100.00
21359;BME280;13506;50.852;20.632;2023-06-14T03:50:12;98178.66;;;12.33;100.00
21359;BME280;13506;50.852;20.632;2023-06-14T03:52:40;98179.72;;;12.31;100.00
21359;BME280;13506;50.852;20.632;2023-06-14T03:55:11;98184.03;;;12.32;100.00
21359;BME280;13506;50.852;20.632;2023-06-14T03:57:41;98172.34;;;12.36;100.00
21359;BME280;13506;50.852;20.632;2023-06-14T04:00:14;98177.31;;;12.39;100.00
21359;BME280;13506;50.852;20.632;2023-06-14T04:02:43;98178.00;;;12.09;100.00
21359;BME280;13506;50.852;20.632;2023-06-14T04:05:13;98194.84;;;12.06;100.00
21359;BME280;13506;50.852;20.632;2023-06-14T04:07:49;98190.47;;;11.95;100.00
21359;BME280;13506;50.852;20.632;2023-06-14T04:10:17;98200.09;;;11.95;100.00
21359;BME280;13506;50.852;20.632;2023-06-14T04:12:47;98203.78;;;12.04;100.00
21359;BME280;13506;50.852;20.632;2023-06-14T04:15:15;98196.19;;;11.89;100.00
21359;BME280;13506;50.852;20.632;2023-06-14T04:17:44;98198.69;;;11.91;100.00
21359;BME280;13506;50.852;20.632;2023-06-14T04:20:14;98207.69;;;11.66;100.00
21359;BME280;13506;50.852;20.632;2023-06-14T04:22:44;98212.06;;;11.65;100.00
21359;BME280;13506;50.852;20.632;2023-06-14T04:25:12;98218.13;;;11.77;100.00
21359;BME280;13506;50.852;20.632;2023-06-14T04:27:42;98208.03;;;11.61;100.00
21359;BME280;13506;50.852;20.632;2023-06-14T04:30:11;98207.19;;;11.72;100.00
21359;BME280;13506;50.852;20.632;2023-06-14T04:32:48;98210.25;;;11.88;100.00
21359;BME280;13506;50.852;20.632;2023-06-14T04:35:24;98206.78;;;11.88;100.00
21359;BME280;13506;50.852;20.632;2023-06-14T04:37:55;98214.78;;;11.86;100.00
21359;BME280;13506;50.852;20.632;2023-06-14T04:40:24;98207.34;;;12.03;100.00
21359;BME280;13506;50.852;20.632;2023-06-14T04:42:52;98206.34;;;12.15;100.00
21359;BME280;13506;50.852;20.632;2023-06-14T04:45:21;98210.06;;;12.24;100.00
21359;BME280;13506;50.852;20.632;2023-06-14T04:47:51;98197.66;;;12.26;100.00
21359;BME280;13506;50.852;20.632;2023-06-14T04:50:25;98216.75;;;12.16;100.00
21359;BME280;13506;50.852;20.632;2023-06-14T04:52:54;98213.56;;;12.02;100.00
21359;BME280;13506;50.852;20.632;2023-06-14T04:55:23;98213.00;;;11.87;100.00
21359;BME280;13506;50.852;20.632;2023-06-14T04:57:53;98206.69;;;11.89;100.00
21359;BME280;13506;50.852;20.632;2023-06-14T05:00:22;98205.22;;;11.96;100.00
21359;BME280;13506;50.852;20.632;2023-06-14T05:02:50;98218.06;;;12.11;100.00
21359;BME280;13506;50.852;20.632;2023-06-14T05:05:20;98215.81;;;11.95;100.00
21359;BME280;13506;50.852;20.632;2023-06-14T05:07:51;98215.22;;;12.03;100.00
21359;BME280;13506;50.852;20.632;2023-06-14T05:10:19;98217.38;;;11.97;100.00
21359;BME280;13506;50.852;20.632;2023-06-14T05:12:48;98212.31;;;11.62;100.00
21359;BME280;13506;50.852;20.632;2023-06-14T05:15:18;98218.88;;;11.68;100.00
21359;BME280;13506;50.852;20.632;2023-06-14T05:17:52;98219.59;;;11.70;100.00
21359;BME280;13506;50.852;20.632;2023-06-14T05:20:21;98214.09;;;11.73;100.00
21359;BME280;13506;50.852;20.632;2023-06-14T05:22:53;98218.31;;;11.96;100.00
21359;BME280;13506;50.852;20.632;2023-06-14T05:25:21;98219.41;;;11.94;100.00
21359;BME280;13506;50.852;20.632;2023-06-14T05:27:50;98225.25;;;11.97;100.00
21359;BME280;13506;50.852;20.632;2023-06-14T05:30:18;98225.81;;;12.01;100.00
21359;BME280;13506;50.852;20.632;2023-06-14T05:32:46;98221.84;;;12.18;100.00
21359;BME280;13506;50.852;20.632;2023-06-14T05:35:14;98221.97;;;12.16;100.00
21359;BME280;13506;50.852;20.632;2023-06-14T05:37:43;98219.25;;;12.07;100.00
21359;BME280;13506;50.852;20.632;2023-06-14T05:40:12;98213.59;;;11.79;100.00
21359;BME280;13506;50.852;20.632;2023-06-14T05:42:41;98223.41;;;12.09;100.00
21359;BME280;13506;50.852;20.632;2023-06-14T05:45:09;98218.50;;;12.27;100.00
21359;BME280;13506;50.852;20.632;2023-06-14T05:47:37;98221.69;;;12.42;100.00
21359;BME280;13506;50.852;20.632;2023-06-14T05:50:06;98220.78;;;12.53;100.00
21359;BME280;13506;50.852;20.632;2023-06-14T05:52:35;98216.66;;;12.71;100.00
21359;BME280;13506;50.852;20.632;2023-06-14T05:55:04;98216.88;;;12.68;100.00
21359;BME280;13506;50.852;20.632;2023-06-14T05:57:34;98219.50;;;12.68;100.00
21359;BME280;13506;50.852;20.632;2023-06-14T06:00:02;98225.41;;;12.82;100.00
21359;BME280;13506;50.852;20.632;2023-06-14T06:02:39;98217.28;;;12.85;100.00
21359;BME280;13506;50.852;20.632;2023-06-14T06:05:07;98230.38;;;12.43;100.00
21359;BME280;13506;50.852;20.632;2023-06-14T06:07:36;98230.50;;;12.62;100.00
21359;BME280;13506;50.852;20.632;2023-06-14T06:10:04;98220.41;;;12.78;100.00
21359;BME280;13506;50.852;20.632;2023-06-14T06:12:34;98228.47;;;12.87;100.00
21359;BME280;13506;50.852;20.632;2023-06-14T06:15:02;98225.16;;;12.85;100.00
21359;BME280;13506;50.852;20.632;2023-06-14T06:17:31;98235.66;;;13.06;100.00
21359;BME280;13506;50.852;20.632;2023-06-14T06:19:59;98233.56;;;13.09;100.00
21359;BME280;13506;50.852;20.632;2023-06-14T06:22:27;98231.91;;;13.08;100.00
21359;BME280;13506;50.852;20.632;2023-06-14T06:24:55;98224.94;;;13.18;100.00
21359;BME280;13506;50.852;20.632;2023-06-14T06:27:23;98233.22;;;13.14;100.00
21359;BME280;13506;50.852;20.632;2023-06-14T06:29:52;98228.19;;;13.11;100.00
21359;BME280;13506;50.852;20.632;2023-06-14T06:32:21;98231.66;;;13.11;100.00
21359;BME280;13506;50.852;20.632;2023-06-14T06:34:49;98236.47;;;13.06;100.00
21359;BME280;13506;50.852;20.632;2023-06-14T06:37:17;98230.69;;;13.12;100.00
21359;BME280;13506;50.852;20.632;2023-06-14T06:39:45;98240.81;;;12.96;100.00
21359;BME280;13506;50.852;20.632;2023-06-14T06:42:14;98238.47;;;13.14;100.00
21359;BME280;13506;50.852;20.632;2023-06-14T06:44:43;98237.28;;;13.28;100.00
21359;BME280;13506;50.852;20.632;2023-06-14T06:47:14;98238.19;;;13.38;100.00
21359;BME280;13506;50.852;20.632;2023-06-14T06:49:42;98238.78;;;13.51;100.00
21359;BME280;13506;50.852;20.632;2023-06-14T06:52:10;98241.88;;;13.56;100.00
21359;BME280;13506;50.852;20.632;2023-06-14T06:54:38;98242.44;;;13.70;100.00
21359;BME280;13506;50.852;20.632;2023-06-14T06:57:07;98249.75;;;13.66;100.00
21359;BME280;13506;50.852;20.632;2023-06-14T06:59:35;98257.41;;;13.79;100.00
21359;BME280;13506;50.852;20.632;2023-06-14T07:02:03;98259.50;;;13.85;100.00
21359;BME280;13506;50.852;20.632;2023-06-14T07:04:33;98258.72;;;13.94;100.00
21359;BME280;13506;50.852;20.632;2023-06-14T07:07:01;98256.00;;;13.65;99.45
21359;BME280;13506;50.852;20.632;2023-06-14T07:09:29;98265.69;;;13.34;100.00
21359;BME280;13506;50.852;20.632;2023-06-14T07:11:57;98259.03;;;13.61;100.00
21359;BME280;13506;50.852;20.632;2023-06-14T07:14:25;98262.66;;;13.69;100.00
21359;BME280;13506;50.852;20.632;2023-06-14T07:16:54;98265.47;;;13.77;100.00
21359;BME280;13506;50.852;20.632;2023-06-14T07:19:22;98268.53;;;13.92;100.00
21359;BME280;13506;50.852;20.632;2023-06-14T07:21:51;98269.38;;;13.93;100.00
21359;BME280;13506;50.852;20.632;2023-06-14T07:24:21;98275.41;;;13.74;100.00
21359;BME280;13506;50.852;20.632;2023-06-14T07:26:49;98272.03;;;14.03;100.00
21359;BME280;13506;50.852;20.632;2023-06-14T07:29:17;98266.44;;;13.86;100.00
21359;BME280;13506;50.852;20.632;2023-06-14T07:31:46;98265.38;;;14.08;99.93
21359;BME280;13506;50.852;20.632;2023-06-14T07:34:14;98269.72;;;14.29;99.39
21359;BME280;13506;50.852;20.632;2023-06-14T07:36:42;98268.38;;;14.34;98.97
21359;BME280;13506;50.852;20.632;2023-06-14T07:39:13;98273.06;;;14.40;98.88
21359;BME280;13506;50.852;20.632;2023-06-14T07:41:41;98275.78;;;14.10;98.37
21359;BME280;13506;50.852;20.632;2023-06-14T07:44:09;98277.22;;;14.33;97.03
21359;BME280;13506;50.852;20.632;2023-06-14T07:46:38;98284.53;;;14.30;97.49
21359;BME280;13506;50.852;20.632;2023-06-14T07:49:07;98295.63;;;13.83;98.66
21359;BME280;13506;50.852;20.632;2023-06-14T07:51:35;98292.91;;;13.94;98.77
21359;BME280;13506;50.852;20.632;2023-06-14T07:54:04;98295.84;;;14.11;98.44
21359;BME280;13506;50.852;20.632;2023-06-14T07:56:35;98288.81;;;14.21;98.54
21359;BME280;13506;50.852;20.632;2023-06-14T07:59:03;98291.44;;;14.21;99.35
21359;BME280;13506;50.852;20.632;2023-06-14T08:01:32;98294.50;;;14.26;99.69
21359;BME280;13506;50.852;20.632;2023-06-14T08:04:00;98289.44;;;14.34;99.62
21359;BME280;13506;50.852;20.632;2023-06-14T08:06:29;98288.84;;;14.31;99.92
21359;BME280;13506;50.852;20.632;2023-06-14T08:08:57;98288.41;;;14.26;99.70
21359;BME280;13506;50.852;20.632;2023-06-14T08:11:25;98293.59;;;14.37;99.61
21359;BME280;13506;50.852;20.632;2023-06-14T08:13:55;98289.25;;;14.26;99.64
21359;BME280;13506;50.852;20.632;2023-06-14T08:16:23;98290.97;;;14.37;99.55
21359;BME280;13506;50.852;20.632;2023-06-14T08:18:51;98286.88;;;14.13;100.00
21359;BME280;13506;50.852;20.632;2023-06-14T08:21:19;98295.59;;;14.24;99.62
21359;BME280;13506;50.852;20.632;2023-06-14T08:23:47;98299.38;;;14.40;99.82
21359;BME280;13506;50.852;20.632;2023-06-14T08:26:15;98283.19;;;14.55;98.98
21359;BME280;13506;50.852;20.632;2023-06-14T08:28:43;98285.72;;;14.56;98.29
21359;BME280;13506;50.852;20.632;2023-06-14T08:31:13;98291.38;;;14.71;98.45
21359;BME280;13506;50.852;20.632;2023-06-14T08:33:41;98292.63;;;14.87;99.21
21359;BME280;13506;50.852;20.632;2023-06-14T08:36:10;98293.19;;;15.00;98.68
21359;BME280;13506;50.852;20.632;2023-06-14T08:38:38;98288.34;;;14.76;98.36
21359;BME280;13506;50.852;20.632;2023-06-14T08:41:06;98287.66;;;14.64;98.97
21359;BME280;13506;50.852;20.632;2023-06-14T08:43:35;98287.78;;;14.82;99.05
21359;BME280;13506;50.852;20.632;2023-06-14T08:46:04;98284.13;;;15.12;99.31
21359;BME280;13506;50.852;20.632;2023-06-14T08:48:36;98281.06;;;15.36;98.32
21359;BME280;13506;50.852;20.632;2023-06-14T08:51:05;98283.28;;;15.31;98.24
21359;BME280;13506;50.852;20.632;2023-06-14T08:53:34;98277.00;;;15.42;97.90
21359;BME280;13506;50.852;20.632;2023-06-14T08:56:09;98283.78;;;15.54;98.41
21359;BME280;13506;50.852;20.632;2023-06-14T08:58:40;98280.19;;;15.55;94.69
21359;BME280;13506;50.852;20.632;2023-06-14T09:01:11;98283.31;;;15.69;95.68
21359;BME280;13506;50.852;20.632;2023-06-14T09:03:42;98283.41;;;15.77;95.32
21359;BME280;13506;50.852;20.632;2023-06-14T09:06:12;98287.69;;;15.78;95.90
21359;BME280;13506;50.852;20.632;2023-06-14T09:08:42;98272.88;;;15.77;93.15
21359;BME280;13506;50.852;20.632;2023-06-14T09:11:12;98279.50;;;15.53;93.00
21359;BME280;13506;50.852;20.632;2023-06-14T09:13:41;98282.25;;;15.61;94.21
21359;BME280;13506;50.852;20.632;2023-06-14T09:16:10;98287.28;;;15.82;93.64
21359;BME280;13506;50.852;20.632;2023-06-14T09:18:40;98295.28;;;15.91;92.36
21359;BME280;13506;50.852;20.632;2023-06-14T09:21:12;98291.78;;;16.18;92.09
21359;BME280;13506;50.852;20.632;2023-06-14T09:23:41;98291.47;;;16.31;91.63
21359;BME280;13506;50.852;20.632;2023-06-14T09:26:10;98294.16;;;16.49;91.21
21359;BME280;13506;50.852;20.632;2023-06-14T09:28:42;98294.22;;;16.57;89.96
21359;BME280;13506;50.852;20.632;2023-06-14T09:31:11;98294.22;;;16.57;87.39
21359;BME280;13506;50.852;20.632;2023-06-14T09:33:41;98293.88;;;16.24;87.04
21359;BME280;13506;50.852;20.632;2023-06-14T09:36:14;98294.94;;;16.03;88.90
21359;BME280;13506;50.852;20.632;2023-06-14T09:38:52;98295.72;;;16.14;89.70
21359;BME280;13506;50.852;20.632;2023-06-14T09:41:20;98292.09;;;16.15;89.69
21359;BME280;13506;50.852;20.632;2023-06-14T09:43:49;98299.94;;;16.07;89.64
21359;BME280;13506;50.852;20.632;2023-06-14T09:46:18;98304.91;;;16.10;90.97
21359;BME280;13506;50.852;20.632;2023-06-14T09:48:46;98294.94;;;15.76;88.73
21359;BME280;13506;50.852;20.632;2023-06-14T09:51:16;98292.97;;;15.78;89.84
21359;BME280;13506;50.852;20.632;2023-06-14T09:53:48;98287.66;;;15.60;90.33
21359;BME280;13506;50.852;20.632;2023-06-14T09:56:22;98302.09;;;15.56;90.36
21359;BME280;13506;50.852;20.632;2023-06-14T09:58:55;98296.78;;;15.66;90.34
21359;BME280;13506;50.852;20.632;2023-06-14T10:01:25;98294.97;;;15.66;90.11
21359;BME280;13506;50.852;20.632;2023-06-14T10:03:58;98300.72;;;15.52;90.08
21359;BME280;13506;50.852;20.632;2023-06-14T10:06:29;98291.00;;;15.52;89.74
21359;BME280;13506;50.852;20.632;2023-06-14T10:08:59;98299.06;;;15.51;90.21
21359;BME280;13506;50.852;20.632;2023-06-14T10:11:28;98292.66;;;15.53;90.61
21359;BME280;13506;50.852;20.632;2023-06-14T10:13:58;98302.78;;;15.58;91.08
21359;BME280;13506;50.852;20.632;2023-06-14T10:16:30;98306.00;;;15.52;91.64
21359;BME280;13506;50.852;20.632;2023-06-14T10:19:06;98297.50;;;15.68;91.05
21359;BME280;13506;50.852;20.632;2023-06-14T10:21:46;98306.25;;;15.58;90.64
21359;BME280;13506;50.852;20.632;2023-06-14T10:24:20;98294.63;;;15.51;91.16
21359;BME280;13506;50.852;20.632;2023-06-14T10:26:56;98290.03;;;15.53;92.40
21359;BME280;13506;50.852;20.632;2023-06-14T10:29:25;98297.38;;;15.59;92.53
21359;BME280;13506;50.852;20.632;2023-06-14T10:31:57;98291.22;;;15.69;92.18
21359;BME280;13506;50.852;20.632;2023-06-14T10:34:27;98296.88;;;15.74;92.14
21359;BME280;13506;50.852;20.632;2023-06-14T10:37:04;98291.06;;;15.33;93.36
21359;BME280;13506;50.852;20.632;2023-06-14T10:39:38;98289.38;;;15.41;92.95
21359;BME280;13506;50.852;20.632;2023-06-14T10:42:06;98294.63;;;15.41;93.31
21359;BME280;13506;50.852;20.632;2023-06-14T10:44:39;98298.97;;;15.33;94.03
21359;BME280;13506;50.852;20.632;2023-06-14T10:47:22;98296.19;;;15.25;94.46
21359;BME280;13506;50.852;20.632;2023-06-14T10:49:52;98295.09;;;15.17;95.14
21359;BME280;13506;50.852;20.632;2023-06-14T10:52:25;98295.63;;;15.21;94.75
21359;BME280;13506;50.852;20.632;2023-06-14T10:55:01;98303.59;;;14.92;96.20
21359;BME280;13506;50.852;20.632;2023-06-14T10:57:31;98293.19;;;14.80;97.08
21359;BME280;13506;50.852;20.632;2023-06-14T10:59:59;98293.75;;;14.94;96.63
21359;BME280;13506;50.852;20.632;2023-06-14T11:03:12;98282.91;;;15.07;96.34
21359;BME280;13506;50.852;20.632;2023-06-14T11:05:52;98286.63;;;15.24;96.56
21359;BME280;13506;50.852;20.632;2023-06-14T11:08:56;98287.72;;;15.40;94.86
21359;BME280;13506;50.852;20.632;2023-06-14T11:11:32;98273.22;;;15.54;94.12
21359;BME280;13506;50.852;20.632;2023-06-14T11:14:01;98281.75;;;15.38;93.35
21359;BME280;13506;50.852;20.632;2023-06-14T11:16:30;98282.44;;;15.40;93.24
21359;BME280;13506;50.852;20.632;2023-06-14T11:19:01;98276.75;;;15.45;92.23
21359;BME280;13506;50.852;20.632;2023-06-14T11:21:31;98269.69;;;15.73;92.72
21359;BME280;13506;50.852;20.632;2023-06-14T11:24:01;98277.06;;;15.97;92.30
21359;BME280;13506;50.852;20.632;2023-06-14T11:26:30;98270.81;;;15.98;91.15
21359;BME280;13506;50.852;20.632;2023-06-14T11:29:01;98272.63;;;16.26;91.10
21359;BME280;13506;50.852;20.632;2023-06-14T11:31:30;98267.03;;;16.29;90.76
21359;BME280;13506;50.852;20.632;2023-06-14T11:33:59;98268.78;;;16.38;88.55
21359;BME280;13506;50.852;20.632;2023-06-14T11:36:27;98261.00;;;16.54;89.39
21359;BME280;13506;50.852;20.632;2023-06-14T11:39:00;98266.75;;;16.68;89.37
21359;BME280;13506;50.852;20.632;2023-06-14T11:41:34;98258.91;;;16.76;88.97
21359;BME280;13506;50.852;20.632;2023-06-14T11:44:03;98256.63;;;16.81;87.05
21359;BME280;13506;50.852;20.632;2023-06-14T11:46:32;98261.22;;;16.97;87.70
21359;BME280;13506;50.852;20.632;2023-06-14T11:49:00;98247.75;;;17.08;85.97
21359;BME280;13506;50.852;20.632;2023-06-14T11:51:30;98258.44;;;17.07;85.07
21359;BME280;13506;50.852;20.632;2023-06-14T11:54:00;98251.75;;;17.12;85.21
21359;BME280;13506;50.852;20.632;2023-06-14T11:56:29;98247.63;;;17.18;85.40
21359;BME280;13506;50.852;20.632;2023-06-14T11:58:58;98241.19;;;17.12;85.87
21359;BME280;13506;50.852;20.632;2023-06-14T12:01:29;98247.50;;;17.19;85.47
21359;BME280;13506;50.852;20.632;2023-06-14T12:03:58;98253.97;;;16.81;86.92
21359;BME280;13506;50.852;20.632;2023-06-14T12:06:27;98258.00;;;16.67;87.45
21359;BME280;13506;50.852;20.632;2023-06-14T12:09:03;98253.63;;;16.58;87.40
21359;BME280;13506;50.852;20.632;2023-06-14T12:11:33;98259.28;;;16.45;88.15
21359;BME280;13506;50.852;20.632;2023-06-14T12:14:04;98257.84;;;16.51;87.75
21359;BME280;13506;50.852;20.632;2023-06-14T12:16:33;98263.50;;;16.56;87.71
21359;BME280;13506;50.852;20.632;2023-06-14T12:19:09;98260.19;;;16.36;89.86
21359;BME280;13506;50.852;20.632;2023-06-14T12:21:38;98255.00;;;16.44;89.33
21359;BME280;13506;50.852;20.632;2023-06-14T12:24:09;98260.69;;;16.39;89.29
21359;BME280;13506;50.852;20.632;2023-06-14T12:26:39;98259.41;;;16.43;89.39
21359;BME280;13506;50.852;20.632;2023-06-14T12:29:08;98254.44;;;16.40;88.90
21359;BME280;13506;50.852;20.632;2023-06-14T12:31:36;98252.19;;;16.46;88.71
21359;BME280;13506;50.852;20.632;2023-06-14T12:34:04;98249.25;;;16.49;88.57
21359;BME280;13506;50.852;20.632;2023-06-14T12:36:32;98248.25;;;16.50;88.43
21359;BME280;13506;50.852;20.632;2023-06-14T12:39:02;98247.13;;;16.52;87.64
21359;BME280;13506;50.852;20.632;2023-06-14T12:41:32;98248.25;;;16.50;89.23
21359;BME280;13506;50.852;20.632;2023-06-14T12:44:01;98242.97;;;16.50;88.35
21359;BME280;13506;50.852;20.632;2023-06-14T12:46:31;98246.69;;;16.57;87.98
21359;BME280;13506;50.852;20.632;2023-06-14T12:48:59;98248.31;;;16.58;88.02
21359;BME280;13506;50.852;20.632;2023-06-14T12:51:27;98241.47;;;16.65;87.81
21359;BME280;13506;50.852;20.632;2023-06-14T12:53:55;98248.19;;;16.59;88.54
21359;BME280;13506;50.852;20.632;2023-06-14T12:56:23;98242.97;;;16.50;89.00
21359;BME280;13506;50.852;20.632;2023-06-14T12:58:53;98239.06;;;16.54;89.24